sensor_id;sensor_type;location;lat;lon;timestamp;temperature;humidity
2158;DHT22;41972;48.774;9.282;2022-11-15T00:01:20;8.60;99.90
2158;DHT22;41972;48.774;9.282;2022-11-15T00:03:51;8.50;99.90
2158;DHT22;41972;48.774;9.282;2022-11-15T00:06:16;8.50;99.90
2158;DHT22;41972;48.774;9.282;2022-11-15T00:08:42;8.40;99.90
2158;DHT22;41972;48.774;9.282;2022-11-15T00:11:09;8.50;99.90
2158;DHT22;41972;48.774;9.282;2022-11-15T00:13:35;8.60;99.90
2158;DHT22;41972;48.774;9.282;2022-11-15T00:16:01;8.70;99.90
2158;DHT22;41972;48.774;9.282;2022-11-15T00:18:28;8.60;99.90
2158;DHT22;41972;48.774;9.282;2022-11-15T00:20:54;8.60;99.90
2158;DHT22;41972;48.774;9.282;2022-11-15T00:23:20;8.50;99.90
2158;DHT22;41972;48.774;9.282;2022-11-15T00:25:46;8.50;99.90
2158;DHT22;41972;48.774;9.282;2022-11-15T00:28:11;8.50;99.90
2158;DHT22;41972;48.774;9.282;2022-11-15T00:30:37;8.50;99.90
2158;DHT22;41972;48.774;9.282;2022-11-15T00:33:05;8.50;99.90
2158;DHT22;41972;48.774;9.282;2022-11-15T00:35:33;8.20;99.90
2158;DHT22;41972;48.774;9.282;2022-11-15T00:37:59;8.20;99.90
2158;DHT22;41972;48.774;9.282;2022-11-15T00:40:24;8.20;99.90
2158;DHT22;41972;48.774;9.282;2022-11-15T00:42:50;8.20;99.90
2158;DHT22;41972;48.774;9.282;2022-11-15T00:45:16;8.30;99.90
2158;DHT22;41972;48.774;9.282;2022-11-15T00:47:44;8.30;99.90
2158;DHT22;41972;48.774;9.282;2022-11-15T00:50:10;8.10;99.90
2158;DHT22;41972;48.774;9.282;2022-11-15T00:52:36;8.10;99.90
2158;DHT22;41972;48.774;9.282;2022-11-15T00:55:01;8.00;99.90
2158;DHT22;41972;48.774;9.282;2022-11-15T00:57:27;7.90;99.90
2158;DHT22;41972;48.774;9.282;2022-11-15T00:59:53;7.80;99.90
2158;DHT22;41972;48.774;9.282;2022-11-15T01:02:18;7.90;99.90
2158;DHT22;41972;48.774;9.282;2022-11-15T01:04:44;7.90;99.90
2158;DHT22;41972;48.774;9.282;2022-11-15T01:07:09;7.80;99.90
2158;DHT22;41972;48.774;9.282;2022-11-15T01:09:35;7.80;99.90
2158;DHT22;41972;48.774;9.282;2022-11-15T01:12:00;7.70;99.90
2158;DHT22;41972;48.774;9.282;2022-11-15T01:14:26;7.70;99.90
2158;DHT22;41972;48.774;9.282;2022-11-15T01:16:51;7.50;99.90
2158;DHT22;41972;48.774;9.282;2022-11-15T01:19:17;7.50;99.90
2158;DHT22;41972;48.774;9.282;2022-11-15T01:21:43;7.30;99.90
2158;DHT22;41972;48.774;9.282;2022-11-15T01:24:12;7.20;99.90
2158;DHT22;41972;48.774;9.282;2022-11-15T01:26:38;7.20;99.90
2158;DHT22;41972;48.774;9.282;2022-11-15T01:29:03;7.20;99.90
2158;DHT22;41972;48.774;9.282;2022-11-15T01:31:29;7.20;99.90
2158;DHT22;41972;48.774;9.282;2022-11-15T01:33:55;7.20;99.90
2158;DHT22;41972;48.774;9.282;2022-11-15T01:36:21;7.00;99.90
2158;DHT22;41972;48.774;9.282;2022-11-15T01:38:53;6.70;99.90
2158;DHT22;41972;48.774;9.282;2022-11-15T01:41:24;6.70;99.90
2158;DHT22;41972;48.774;9.282;2022-11-15T01:43:56;6.70;99.90
2158;DHT22;41972;48.774;9.282;2022-11-15T01:46:31;6.60;99.90
2158;DHT22;41972;48.774;9.282;2022-11-15T01:49:01;6.50;99.90
2158;DHT22;41972;48.774;9.282;2022-11-15T01:51:30;6.50;99.90
2158;DHT22;41972;48.774;9.282;2022-11-15T01:54:03;6.30;99.90
2158;DHT22;41972;48.774;9.282;2022-11-15T01:56:32;6.20;99.90
2158;DHT22;41972;48.774;9.282;2022-11-15T01:59:02;6.20;99.90
2158;DHT22;41972;48.774;9.282;2022-11-15T02:01:30;6.10;99.90
2158;DHT22;41972;48.774;9.282;2022-11-15T02:04:04;6.00;99.90
2158;DHT22;41972;48.774;9.282;2022-11-15T02:06:31;6.10;99.90
2158;DHT22;41972;48.774;9.282;2022-11-15T02:08:57;6.10;99.90
2158;DHT22;41972;48.774;9.282;2022-11-15T02:11:23;6.00;99.90
2158;DHT22;41972;48.774;9.282;2022-11-15T02:13:49;5.90;99.90
2158;DHT22;41972;48.774;9.282;2022-11-15T02:16:43;5.90;99.90
2158;DHT22;41972;48.774;9.282;2022-11-15T02:25:09;6.00;99.90
2158;DHT22;41972;48.774;9.282;2022-11-15T02:27:59;6.20;99.90
2158;DHT22;41972;48.774;9.282;2022-11-15T02:31:17;6.10;99.90
2158;DHT22;41972;48.774;9.282;2022-11-15T02:33:53;6.00;99.90
2158;DHT22;41972;48.774;9.282;2022-11-15T02:36:49;6.20;99.90
2158;DHT22;41972;48.774;9.282;2022-11-15T02:39:27;6.30;99.90
2158;DHT22;41972;48.774;9.282;2022-11-15T02:42:14;6.30;99.90
2158;DHT22;41972;48.774;9.282;2022-11-15T02:45:04;6.30;99.90
2158;DHT22;41972;48.774;9.282;2022-11-15T02:47:34;6.30;99.90
2158;DHT22;41972;48.774;9.282;2022-11-15T02:50:08;6.40;99.90
2158;DHT22;41972;48.774;9.282;2022-11-15T02:52:35;6.30;99.90
2158;DHT22;41972;48.774;9.282;2022-11-15T02:55:01;6.30;99.90
2158;DHT22;41972;48.774;9.282;2022-11-15T02:57:44;6.30;99.90
2158;DHT22;41972;48.774;9.282;2022-11-15T03:00:14;6.30;99.90
2158;DHT22;41972;48.774;9.282;2022-11-15T03:08:37;6.50;99.90
2158;DHT22;41972;48.774;9.282;2022-11-15T03:11:10;6.60;99.90
2158;DHT22;41972;48.774;9.282;2022-11-15T03:18:57;7.10;99.90
2158;DHT22;41972;48.774;9.282;2022-11-15T03:21:24;7.20;99.90
2158;DHT22;41972;48.774;9.282;2022-11-15T03:23:55;7.30;99.90
2158;DHT22;41972;48.774;9.282;2022-11-15T03:26:24;7.30;99.90
2158;DHT22;41972;48.774;9.282;2022-11-15T03:28:53;7.40;99.90
2158;DHT22;41972;48.774;9.282;2022-11-15T03:31:21;7.40;99.90
2158;DHT22;41972;48.774;9.282;2022-11-15T03:34:09;7.40;99.90
2158;DHT22;41972;48.774;9.282;2022-11-15T03:36:37;7.50;99.90
2158;DHT22;41972;48.774;9.282;2022-11-15T03:39:06;7.50;99.90
2158;DHT22;41972;48.774;9.282;2022-11-15T03:42:23;7.50;99.90
2158;DHT22;41972;48.774;9.282;2022-11-15T03:44:51;7.40;99.90
2158;DHT22;41972;48.774;9.282;2022-11-15T03:47:32;7.30;99.90
2158;DHT22;41972;48.774;9.282;2022-11-15T03:50:07;7.40;99.90
2158;DHT22;41972;48.774;9.282;2022-11-15T03:52:34;7.30;99.90
2158;DHT22;41972;48.774;9.282;2022-11-15T03:55:01;7.10;99.90
2158;DHT22;41972;48.774;9.282;2022-11-15T03:57:28;7.10;99.90
2158;DHT22;41972;48.774;9.282;2022-11-15T03:59:54;7.00;99.90
2158;DHT22;41972;48.774;9.282;2022-11-15T04:02:20;7.00;99.90
2158;DHT22;41972;48.774;9.282;2022-11-15T04:04:45;7.10;99.90
2158;DHT22;41972;48.774;9.282;2022-11-15T04:07:11;7.10;99.90
2158;DHT22;41972;48.774;9.282;2022-11-15T04:09:36;7.20;99.90
2158;DHT22;41972;48.774;9.282;2022-11-15T04:12:22;7.20;99.90
2158;DHT22;41972;48.774;9.282;2022-11-15T04:17:42;7.10;99.90
2158;DHT22;41972;48.774;9.282;2022-11-15T04:20:12;7.10;99.90
2158;DHT22;41972;48.774;9.282;2022-11-15T04:22:57;7.00;99.90
2158;DHT22;41972;48.774;9.282;2022-11-15T04:25:41;6.90;99.90
2158;DHT22;41972;48.774;9.282;2022-11-15T04:28:08;6.90;99.90
2158;DHT22;41972;48.774;9.282;2022-11-15T04:30:33;6.50;99.90
2158;DHT22;41972;48.774;9.282;2022-11-15T04:32:59;6.20;99.90
2158;DHT22;41972;48.774;9.282;2022-11-15T04:35:25;6.30;99.90
2158;DHT22;41972;48.774;9.282;2022-11-15T04:37:50;6.30;99.90
2158;DHT22;41972;48.774;9.282;2022-11-15T04:40:16;6.30;99.90
2158;DHT22;41972;48.774;9.282;2022-11-15T04:42:42;6.30;99.90
2158;DHT22;41972;48.774;9.282;2022-11-15T04:45:10;6.10;99.90
2158;DHT22;41972;48.774;9.282;2022-11-15T04:47:36;6.10;99.90
2158;DHT22;41972;48.774;9.282;2022-11-15T04:50:02;6.10;99.90
2158;DHT22;41972;48.774;9.282;2022-11-15T04:52:28;6.10;99.90
2158;DHT22;41972;48.774;9.282;2022-11-15T04:54:53;6.10;99.90
2158;DHT22;41972;48.774;9.282;2022-11-15T04:57:19;6.20;99.90
2158;DHT22;41972;48.774;9.282;2022-11-15T04:59:45;6.10;99.90
2158;DHT22;41972;48.774;9.282;2022-11-15T05:02:10;5.90;99.90
2158;DHT22;41972;48.774;9.282;2022-11-15T05:04:36;6.00;99.90
2158;DHT22;41972;48.774;9.282;2022-11-15T05:07:02;5.90;99.90
2158;DHT22;41972;48.774;9.282;2022-11-15T05:09:30;5.90;99.90
2158;DHT22;41972;48.774;9.282;2022-11-15T05:11:56;5.90;99.90
2158;DHT22;41972;48.774;9.282;2022-11-15T05:14:21;5.70;99.90
2158;DHT22;41972;48.774;9.282;2022-11-15T05:16:47;5.80;99.90
2158;DHT22;41972;48.774;9.282;2022-11-15T05:19:13;5.90;99.90
2158;DHT22;41972;48.774;9.282;2022-11-15T05:21:39;6.00;99.90
2158;DHT22;41972;48.774;9.282;2022-11-15T05:24:05;5.90;99.90
2158;DHT22;41972;48.774;9.282;2022-11-15T05:26:31;5.90;99.90
2158;DHT22;41972;48.774;9.282;2022-11-15T05:28:58;5.90;99.90
2158;DHT22;41972;48.774;9.282;2022-11-15T05:31:24;6.00;99.90
2158;DHT22;41972;48.774;9.282;2022-11-15T05:33:51;5.90;99.90
2158;DHT22;41972;48.774;9.282;2022-11-15T05:36:34;5.90;99.90
2158;DHT22;41972;48.774;9.282;2022-11-15T05:39:01;5.90;99.90
2158;DHT22;41972;48.774;9.282;2022-11-15T05:43:58;5.60;99.90
2158;DHT22;41972;48.774;9.282;2022-11-15T05:46:25;5.80;99.90
2158;DHT22;41972;48.774;9.282;2022-11-15T05:48:51;5.80;99.90
2158;DHT22;41972;48.774;9.282;2022-11-15T05:51:18;5.90;99.90
2158;DHT22;41972;48.774;9.282;2022-11-15T05:53:46;5.90;99.90
2158;DHT22;41972;48.774;9.282;2022-11-15T05:56:12;5.90;99.90
2158;DHT22;41972;48.774;9.282;2022-11-15T05:58:39;5.80;99.90
2158;DHT22;41972;48.774;9.282;2022-11-15T06:01:05;5.70;99.90
2158;DHT22;41972;48.774;9.282;2022-11-15T06:03:30;5.70;99.90
2158;DHT22;41972;48.774;9.282;2022-11-15T06:05:56;5.70;99.90
2158;DHT22;41972;48.774;9.282;2022-11-15T06:08:22;5.60;99.90
2158;DHT22;41972;48.774;9.282;2022-11-15T06:10:47;5.50;99.90
2158;DHT22;41972;48.774;9.282;2022-11-15T06:13:13;5.50;99.90
2158;DHT22;41972;48.774;9.282;2022-11-15T06:15:39;5.50;99.90
2158;DHT22;41972;48.774;9.282;2022-11-15T06:18:04;5.60;99.90
2158;DHT22;41972;48.774;9.282;2022-11-15T06:20:30;5.70;99.90
2158;DHT22;41972;48.774;9.282;2022-11-15T06:23:00;5.70;99.90
2158;DHT22;41972;48.774;9.282;2022-11-15T06:25:27;5.70;99.90
2158;DHT22;41972;48.774;9.282;2022-11-15T06:27:54;5.50;99.90
2158;DHT22;41972;48.774;9.282;2022-11-15T06:30:20;5.60;99.90
2158;DHT22;41972;48.774;9.282;2022-11-15T06:32:46;5.60;99.90
2158;DHT22;41972;48.774;9.282;2022-11-15T06:35:11;5.60;99.90
2158;DHT22;41972;48.774;9.282;2022-11-15T06:37:37;5.60;99.90
2158;DHT22;41972;48.774;9.282;2022-11-15T06:40:02;5.50;99.90
2158;DHT22;41972;48.774;9.282;2022-11-15T06:42:28;5.30;99.90
2158;DHT22;41972;48.774;9.282;2022-11-15T06:44:54;5.40;99.90
2158;DHT22;41972;48.774;9.282;2022-11-15T06:47:19;5.40;99.90
2158;DHT22;41972;48.774;9.282;2022-11-15T06:49:45;5.40;99.90
2158;DHT22;41972;48.774;9.282;2022-11-15T06:52:10;5.50;99.90
2158;DHT22;41972;48.774;9.282;2022-11-15T06:54:36;5.60;99.90
2158;DHT22;41972;48.774;9.282;2022-11-15T06:57:01;5.70;99.90
2158;DHT22;41972;48.774;9.282;2022-11-15T06:59:29;5.70;99.90
2158;DHT22;41972;48.774;9.282;2022-11-15T07:01:54;5.70;99.90
2158;DHT22;41972;48.774;9.282;2022-11-15T07:04:20;5.70;99.90
2158;DHT22;41972;48.774;9.282;2022-11-15T07:06:48;5.70;99.90
2158;DHT22;41972;48.774;9.282;2022-11-15T07:09:14;5.80;99.90
2158;DHT22;41972;48.774;9.282;2022-11-15T07:11:40;5.80;99.90
2158;DHT22;41972;48.774;9.282;2022-11-15T07:14:05;5.90;99.90
2158;DHT22;41972;48.774;9.282;2022-11-15T07:16:31;5.90;99.90
2158;DHT22;41972;48.774;9.282;2022-11-15T07:18:56;6.00;99.90
2158;DHT22;41972;48.774;9.282;2022-11-15T07:21:22;6.10;99.90
2158;DHT22;41972;48.774;9.282;2022-11-15T07:23:47;6.00;99.90
2158;DHT22;41972;48.774;9.282;2022-11-15T07:26:13;6.20;99.90
2158;DHT22;41972;48.774;9.282;2022-11-15T07:28:38;6.30;99.90
2158;DHT22;41972;48.774;9.282;2022-11-15T07:31:06;6.30;99.90
2158;DHT22;41972;48.774;9.282;2022-11-15T07:33:32;6.40;99.90
2158;DHT22;41972;48.774;9.282;2022-11-15T07:36:01;6.40;99.90
2158;DHT22;41972;48.774;9.282;2022-11-15T07:38:28;6.60;99.90
2158;DHT22;41972;48.774;9.282;2022-11-15T07:40:58;6.80;99.90
2158;DHT22;41972;48.774;9.282;2022-11-15T07:43:24;7.10;99.90
2158;DHT22;41972;48.774;9.282;2022-11-15T07:45:50;7.60;99.90
2158;DHT22;41972;48.774;9.282;2022-11-15T07:48:15;8.00;99.90
2158;DHT22;41972;48.774;9.282;2022-11-15T07:50:41;8.50;99.90
2158;DHT22;41972;48.774;9.282;2022-11-15T07:53:10;8.90;99.90
2158;DHT22;41972;48.774;9.282;2022-11-15T07:55:36;8.30;99.90
2158;DHT22;41972;48.774;9.282;2022-11-15T07:58:03;8.30;99.90
2158;DHT22;41972;48.774;9.282;2022-11-15T08:00:29;8.80;99.90
2158;DHT22;41972;48.774;9.282;2022-11-15T08:03:21;10.10;99.90
2158;DHT22;41972;48.774;9.282;2022-11-15T08:05:50;12.40;99.90
2158;DHT22;41972;48.774;9.282;2022-11-15T08:08:16;14.40;99.90
2158;DHT22;41972;48.774;9.282;2022-11-15T08:10:42;15.90;99.90
2158;DHT22;41972;48.774;9.282;2022-11-15T08:13:09;15.10;99.90
2158;DHT22;41972;48.774;9.282;2022-11-15T08:15:36;12.80;99.90
2158;DHT22;41972;48.774;9.282;2022-11-15T08:18:05;12.50;99.90
2158;DHT22;41972;48.774;9.282;2022-11-15T08:20:31;12.60;99.90
2158;DHT22;41972;48.774;9.282;2022-11-15T08:22:58;12.40;99.90
2158;DHT22;41972;48.774;9.282;2022-11-15T08:25:25;12.70;99.90
2158;DHT22;41972;48.774;9.282;2022-11-15T08:27:56;13.30;99.90
2158;DHT22;41972;48.774;9.282;2022-11-15T08:30:22;14.00;99.90
2158;DHT22;41972;48.774;9.282;2022-11-15T08:32:49;13.40;99.90
2158;DHT22;41972;48.774;9.282;2022-11-15T08:35:15;13.20;99.90
2158;DHT22;41972;48.774;9.282;2022-11-15T08:37:41;13.50;99.90
2158;DHT22;41972;48.774;9.282;2022-11-15T08:40:07;13.60;99.90
2158;DHT22;41972;48.774;9.282;2022-11-15T08:42:33;13.50;99.90
2158;DHT22;41972;48.774;9.282;2022-11-15T08:44:58;14.00;99.90
2158;DHT22;41972;48.774;9.282;2022-11-15T08:47:24;14.50;99.90
2158;DHT22;41972;48.774;9.282;2022-11-15T08:49:50;15.90;99.90
2158;DHT22;41972;48.774;9.282;2022-11-15T08:52:15;16.90;99.90
2158;DHT22;41972;48.774;9.282;2022-11-15T08:54:41;16.30;99.90
2158;DHT22;41972;48.774;9.282;2022-11-15T08:57:07;17.00;99.90
2158;DHT22;41972;48.774;9.282;2022-11-15T08:59:35;17.50;99.90
2158;DHT22;41972;48.774;9.282;2022-11-15T09:02:00;17.70;99.90
2158;DHT22;41972;48.774;9.282;2022-11-15T09:04:26;20.30;99.90
2158;DHT22;41972;48.774;9.282;2022-11-15T09:06:51;22.30;99.90
2158;DHT22;41972;48.774;9.282;2022-11-15T09:09:17;22.10;99.90
2158;DHT22;41972;48.774;9.282;2022-11-15T09:11:42;23.00;98.80
2158;DHT22;41972;48.774;9.282;2022-11-15T09:14:10;23.90;98.40
2158;DHT22;41972;48.774;9.282;2022-11-15T09:16:36;23.70;92.00
2158;DHT22;41972;48.774;9.282;2022-11-15T09:19:02;22.80;91.60
2158;DHT22;41972;48.774;9.282;2022-11-15T09:21:28;22.90;92.00
2158;DHT22;41972;48.774;9.282;2022-11-15T09:23:54;23.10;91.20
2158;DHT22;41972;48.774;9.282;2022-11-15T09:26:20;23.40;88.90
2158;DHT22;41972;48.774;9.282;2022-11-15T09:28:45;23.20;89.70
2158;DHT22;41972;48.774;9.282;2022-11-15T09:31:11;22.40;91.10
2158;DHT22;41972;48.774;9.282;2022-11-15T09:33:36;21.60;91.90
2158;DHT22;41972;48.774;9.282;2022-11-15T09:36:07;20.70;92.70
2158;DHT22;41972;48.774;9.282;2022-11-15T09:38:33;19.70;94.30
2158;DHT22;41972;48.774;9.282;2022-11-15T09:41:25;20.00;95.60
2158;DHT22;41972;48.774;9.282;2022-11-15T09:49:22;19.80;95.80
2158;DHT22;41972;48.774;9.282;2022-11-15T09:51:50;22.50;92.50
2158;DHT22;41972;48.774;9.282;2022-11-15T09:56:47;25.10;90.40
2158;DHT22;41972;48.774;9.282;2022-11-15T09:59:39;26.10;78.50
2158;DHT22;41972;48.774;9.282;2022-11-15T10:04:57;25.80;71.30
2158;DHT22;41972;48.774;9.282;2022-11-15T10:12:51;22.70;71.90
2158;DHT22;41972;48.774;9.282;2022-11-15T10:15:18;21.30;78.90
2158;DHT22;41972;48.774;9.282;2022-11-15T10:20:27;17.70;87.80
2158;DHT22;41972;48.774;9.282;2022-11-15T10:22:58;16.70;90.90
2158;DHT22;41972;48.774;9.282;2022-11-15T10:25:31;16.40;92.10
2158;DHT22;41972;48.774;9.282;2022-11-15T10:28:00;16.80;93.50
2158;DHT22;41972;48.774;9.282;2022-11-15T10:30:41;16.40;92.00
2158;DHT22;41972;48.774;9.282;2022-11-15T10:46:44;16.00;94.90
2158;DHT22;41972;48.774;9.282;2022-11-15T10:49:22;16.00;95.20
2158;DHT22;41972;48.774;9.282;2022-11-15T10:52:15;15.30;96.20
2158;DHT22;41972;48.774;9.282;2022-11-15T10:57:29;15.20;96.90
2158;DHT22;41972;48.774;9.282;2022-11-15T11:02:57;15.70;98.50
2158;DHT22;41972;48.774;9.282;2022-11-15T11:08:03;16.20;98.60
2158;DHT22;41972;48.774;9.282;2022-11-15T11:10:30;15.90;98.80
2158;DHT22;41972;48.774;9.282;2022-11-15T11:12:56;15.20;98.00
2158;DHT22;41972;48.774;9.282;2022-11-15T11:15:37;14.70;99.40
2158;DHT22;41972;48.774;9.282;2022-11-15T11:18:07;14.80;99.10
2158;DHT22;41972;48.774;9.282;2022-11-15T11:20:45;14.20;99.60
2158;DHT22;41972;48.774;9.282;2022-11-15T11:23:21;13.70;99.90
2158;DHT22;41972;48.774;9.282;2022-11-15T11:28:54;13.30;99.90
2158;DHT22;41972;48.774;9.282;2022-11-15T11:40:05;13.60;99.90
2158;DHT22;41972;48.774;9.282;2022-11-15T11:42:58;13.80;99.90
2158;DHT22;41972;48.774;9.282;2022-11-15T11:45:50;13.60;99.90
2158;DHT22;41972;48.774;9.282;2022-11-15T11:50:53;13.70;99.90
2158;DHT22;41972;48.774;9.282;2022-11-15T11:53:30;13.60;99.90
2158;DHT22;41972;48.774;9.282;2022-11-15T11:56:01;13.60;99.90
2158;DHT22;41972;48.774;9.282;2022-11-15T11:58:34;13.70;99.90
2158;DHT22;41972;48.774;9.282;2022-11-15T12:01:14;13.80;99.90
2158;DHT22;41972;48.774;9.282;2022-11-15T12:03:46;14.20;99.90
2158;DHT22;41972;48.774;9.282;2022-11-15T12:06:20;14.60;99.90
2158;DHT22;41972;48.774;9.282;2022-11-15T12:09:05;15.00;99.90
2158;DHT22;41972;48.774;9.282;2022-11-15T12:17:13;15.60;99.90
2158;DHT22;41972;48.774;9.282;2022-11-15T12:19:41;15.30;99.90
2158;DHT22;41972;48.774;9.282;2022-11-15T12:22:33;15.20;99.90
2158;DHT22;41972;48.774;9.282;2022-11-15T12:27:46;14.60;99.90
2158;DHT22;41972;48.774;9.282;2022-11-15T12:30:20;14.40;99.90
2158;DHT22;41972;48.774;9.282;2022-11-15T12:32:57;14.20;99.90
2158;DHT22;41972;48.774;9.282;2022-11-15T12:35:40;14.10;99.90
2158;DHT22;41972;48.774;9.282;2022-11-15T12:38:10;14.00;99.90
2158;DHT22;41972;48.774;9.282;2022-11-15T12:41:12;14.20;99.90
2158;DHT22;41972;48.774;9.282;2022-11-15T12:43:40;14.20;99.90
2158;DHT22;41972;48.774;9.282;2022-11-15T12:49:02;14.10;99.90
2158;DHT22;41972;48.774;9.282;2022-11-15T13:02:39;14.40;99.90
2158;DHT22;41972;48.774;9.282;2022-11-15T13:20:48;13.50;99.90
2158;DHT22;41972;48.774;9.282;2022-11-15T13:23:15;13.60;99.90
2158;DHT22;41972;48.774;9.282;2022-11-15T13:26:08;13.50;99.90
2158;DHT22;41972;48.774;9.282;2022-11-15T13:28:45;13.50;99.90
2158;DHT22;41972;48.774;9.282;2022-11-15T13:31:29;13.40;99.90
2158;DHT22;41972;48.774;9.282;2022-11-15T13:36:42;13.50;99.90
2158;DHT22;41972;48.774;9.282;2022-11-15T13:41:54;13.50;99.90
2158;DHT22;41972;48.774;9.282;2022-11-15T13:44:26;13.50;99.90
2158;DHT22;41972;48.774;9.282;2022-11-15T13:47:06;13.60;99.90
2158;DHT22;41972;48.774;9.282;2022-11-15T13:49:33;13.80;99.90
2158;DHT22;41972;48.774;9.282;2022-11-15T13:52:00;13.50;99.90
2158;DHT22;41972;48.774;9.282;2022-11-15T13:54:43;13.60;99.90
2158;DHT22;41972;48.774;9.282;2022-11-15T13:57:19;13.60;99.90
2158;DHT22;41972;48.774;9.282;2022-11-15T13:59:52;13.60;99.90
2158;DHT22;41972;48.774;9.282;2022-11-15T14:02:21;13.40;99.90
2158;DHT22;41972;48.774;9.282;2022-11-15T14:04:59;13.20;99.90
2158;DHT22;41972;48.774;9.282;2022-11-15T14:07:27;13.00;99.90
2158;DHT22;41972;48.774;9.282;2022-11-15T14:09:54;13.00;99.90
2158;DHT22;41972;48.774;9.282;2022-11-15T14:12:34;12.90;99.90
2158;DHT22;41972;48.774;9.282;2022-11-15T14:15:30;12.80;99.90
2158;DHT22;41972;48.774;9.282;2022-11-15T14:17:48;12.80;99.90
2158;DHT22;41972;48.774;9.282;2022-11-15T14:20:27;12.80;99.90
2158;DHT22;41972;48.774;9.282;2022-11-15T14:22:55;12.80;99.90
2158;DHT22;41972;48.774;9.282;2022-11-15T14:25:26;12.60;99.90
2158;DHT22;41972;48.774;9.282;2022-11-15T14:30:52;12.20;99.90
2158;DHT22;41972;48.774;9.282;2022-11-15T14:33:44;12.10;99.90
2158;DHT22;41972;48.774;9.282;2022-11-15T14:36:14;12.00;99.90
2158;DHT22;41972;48.774;9.282;2022-11-15T14:38:40;11.80;99.90
2158;DHT22;41972;48.774;9.282;2022-11-15T14:41:22;11.60;99.90
2158;DHT22;41972;48.774;9.282;2022-11-15T14:43:48;11.70;99.90
2158;DHT22;41972;48.774;9.282;2022-11-15T14:46:14;11.70;99.90
2158;DHT22;41972;48.774;9.282;2022-11-15T14:48:40;11.60;99.90
2158;DHT22;41972;48.774;9.282;2022-11-15T14:51:13;11.60;99.90
2158;DHT22;41972;48.774;9.282;2022-11-15T14:53:40;11.60;99.90
2158;DHT22;41972;48.774;9.282;2022-11-15T14:56:05;11.50;99.90
2158;DHT22;41972;48.774;9.282;2022-11-15T14:58:31;11.40;99.90
2158;DHT22;41972;48.774;9.282;2022-11-15T15:00:56;11.50;99.90
2158;DHT22;41972;48.774;9.282;2022-11-15T15:03:22;11.50;99.90
2158;DHT22;41972;48.774;9.282;2022-11-15T15:05:47;11.30;99.90
2158;DHT22;41972;48.774;9.282;2022-11-15T15:08:13;11.20;99.90
2158;DHT22;41972;48.774;9.282;2022-11-15T15:10:43;11.30;99.90
2158;DHT22;41972;48.774;9.282;2022-11-15T15:15:43;11.30;99.90
2158;DHT22;41972;48.774;9.282;2022-11-15T15:18:08;11.20;99.90
2158;DHT22;41972;48.774;9.282;2022-11-15T15:20:39;11.30;99.90
2158;DHT22;41972;48.774;9.282;2022-11-15T15:23:05;11.50;99.90
2158;DHT22;41972;48.774;9.282;2022-11-15T15:25:33;11.70;99.90
2158;DHT22;41972;48.774;9.282;2022-11-15T15:28:00;11.70;99.90
2158;DHT22;41972;48.774;9.282;2022-11-15T15:30:29;11.70;99.90
2158;DHT22;41972;48.774;9.282;2022-11-15T15:32:55;11.70;99.90
2158;DHT22;41972;48.774;9.282;2022-11-15T15:35:21;11.70;99.90
2158;DHT22;41972;48.774;9.282;2022-11-15T15:37:48;11.80;99.90
2158;DHT22;41972;48.774;9.282;2022-11-15T15:40:16;11.90;99.90
2158;DHT22;41972;48.774;9.282;2022-11-15T15:42:41;11.90;99.90
2158;DHT22;41972;48.774;9.282;2022-11-15T15:45:08;11.70;99.90
2158;DHT22;41972;48.774;9.282;2022-11-15T15:47:34;11.70;99.90
2158;DHT22;41972;48.774;9.282;2022-11-15T15:50:00;11.60;99.90
2158;DHT22;41972;48.774;9.282;2022-11-15T15:52:25;11.60;99.90
2158;DHT22;41972;48.774;9.282;2022-11-15T15:54:51;11.60;99.90
2158;DHT22;41972;48.774;9.282;2022-11-15T15:57:16;11.60;99.90
2158;DHT22;41972;48.774;9.282;2022-11-15T15:59:42;11.70;99.90
2158;DHT22;41972;48.774;9.282;2022-11-15T16:02:14;11.60;99.90
2158;DHT22;41972;48.774;9.282;2022-11-15T16:04:40;11.70;99.90
2158;DHT22;41972;48.774;9.282;2022-11-15T16:07:07;11.80;99.90
2158;DHT22;41972;48.774;9.282;2022-11-15T16:09:37;11.90;99.90
2158;DHT22;41972;48.774;9.282;2022-11-15T16:12:21;11.90;99.90
2158;DHT22;41972;48.774;9.282;2022-11-15T16:14:46;11.90;99.90
2158;DHT22;41972;48.774;9.282;2022-11-15T16:17:25;11.90;99.90
2158;DHT22;41972;48.774;9.282;2022-11-15T16:19:51;12.00;99.90
2158;DHT22;41972;48.774;9.282;2022-11-15T16:22:16;12.00;99.90
2158;DHT22;41972;48.774;9.282;2022-11-15T16:24:42;12.00;99.90
2158;DHT22;41972;48.774;9.282;2022-11-15T16:27:15;12.00;99.90
2158;DHT22;41972;48.774;9.282;2022-11-15T16:29:41;12.10;99.90
2158;DHT22;41972;48.774;9.282;2022-11-15T16:32:06;12.10;99.90
2158;DHT22;41972;48.774;9.282;2022-11-15T16:34:32;12.10;99.90
2158;DHT22;41972;48.774;9.282;2022-11-15T16:36:59;12.20;99.90
2158;DHT22;41972;48.774;9.282;2022-11-15T16:39:24;12.20;99.90
2158;DHT22;41972;48.774;9.282;2022-11-15T16:41:50;12.40;99.90
2158;DHT22;41972;48.774;9.282;2022-11-15T16:44:15;12.10;99.90
2158;DHT22;41972;48.774;9.282;2022-11-15T16:46:42;12.00;99.90
2158;DHT22;41972;48.774;9.282;2022-11-15T16:49:13;12.00;99.90
2158;DHT22;41972;48.774;9.282;2022-11-15T16:51:40;12.00;99.90
2158;DHT22;41972;48.774;9.282;2022-11-15T16:54:09;12.00;99.90
2158;DHT22;41972;48.774;9.282;2022-11-15T16:56:34;12.10;99.90
2158;DHT22;41972;48.774;9.282;2022-11-15T16:59:00;12.10;99.90
2158;DHT22;41972;48.774;9.282;2022-11-15T17:01:29;12.20;99.90
2158;DHT22;41972;48.774;9.282;2022-11-15T17:03:55;12.10;99.90
2158;DHT22;41972;48.774;9.282;2022-11-15T17:06:22;12.10;99.90
2158;DHT22;41972;48.774;9.282;2022-11-15T17:08:48;12.10;99.90
2158;DHT22;41972;48.774;9.282;2022-11-15T17:11:17;12.00;99.90
2158;DHT22;41972;48.774;9.282;2022-11-15T17:13:43;12.10;99.90
2158;DHT22;41972;48.774;9.282;2022-11-15T17:16:13;12.00;99.90
2158;DHT22;41972;48.774;9.282;2022-11-15T17:18:40;12.00;99.90
2158;DHT22;41972;48.774;9.282;2022-11-15T17:21:09;12.00;99.90
2158;DHT22;41972;48.774;9.282;2022-11-15T17:23:36;12.10;99.90
2158;DHT22;41972;48.774;9.282;2022-11-15T17:26:03;12.00;99.90
2158;DHT22;41972;48.774;9.282;2022-11-15T17:28:30;12.00;99.90
2158;DHT22;41972;48.774;9.282;2022-11-15T17:30:56;12.00;99.90
2158;DHT22;41972;48.774;9.282;2022-11-15T17:33:21;12.10;99.90
2158;DHT22;41972;48.774;9.282;2022-11-15T17:35:58;12.10;99.90
2158;DHT22;41972;48.774;9.282;2022-11-15T17:38:24;12.30;99.90
2158;DHT22;41972;48.774;9.282;2022-11-15T17:40:59;12.30;99.90
2158;DHT22;41972;48.774;9.282;2022-11-15T17:43:25;12.30;99.90
2158;DHT22;41972;48.774;9.282;2022-11-15T17:45:51;12.30;99.90
2158;DHT22;41972;48.774;9.282;2022-11-15T17:48:16;12.30;99.90
2158;DHT22;41972;48.774;9.282;2022-11-15T17:50:42;12.30;99.90
2158;DHT22;41972;48.774;9.282;2022-11-15T17:53:07;12.20;99.90
2158;DHT22;41972;48.774;9.282;2022-11-15T17:55:34;12.10;99.90
2158;DHT22;41972;48.774;9.282;2022-11-15T17:58:00;12.00;99.90
2158;DHT22;41972;48.774;9.282;2022-11-15T18:00:25;12.00;99.90
2158;DHT22;41972;48.774;9.282;2022-11-15T18:02:51;11.90;99.90
2158;DHT22;41972;48.774;9.282;2022-11-15T18:05:16;11.90;99.90
2158;DHT22;41972;48.774;9.282;2022-11-15T18:07:42;11.80;99.90
2158;DHT22;41972;48.774;9.282;2022-11-15T18:10:07;11.80;99.90
2158;DHT22;41972;48.774;9.282;2022-11-15T18:12:33;11.80;99.90